Time;durP1;ratioP1;P1;durP2;ratioP2;P2;SDS_P1;SDS_P2;PMS_P1;PMS_P2;Temp;Humidity;BMP_temperature;BMP_pressure;BME280_temperature;BME280_humidity;BME280_pressure;Samples;Min_cycle;Max_cycle;Signal;HPM_P1;HPM_P2
2021/12/26 00:00:55;;;;;;;6.40;4.78;;;;;;;19.62;37.57;98197.34;5110538;28;20039;-57
2021/12/26 00:03:24;;;;;;;5.78;4.30;;;;;;;19.54;37.65;98192.94;5110651;28;20410;-57
2021/12/26 00:05:51;;;;;;;7.60;4.97;;;;;;;19.57;37.66;98197.72;5110527;28;20047;-56
2021/12/26 00:08:17;;;;;;;6.82;4.72;;;;;;;19.55;37.64;98196.50;5110423;28;20051;-57
2021/12/26 00:10:43;;;;;;;6.63;4.75;;;;;;;19.53;37.76;98206.03;5109290;28;20122;-57
2021/12/26 00:13:08;;;;;;;7.60;5.35;;;;;;;19.53;37.76;98202.47;5110466;28;20461;-57
2021/12/26 00:15:34;;;;;;;6.05;4.70;;;;;;;19.52;37.66;98210.00;5110589;28;20465;-57
2021/12/26 00:17:59;;;;;;;5.97;4.75;;;;;;;19.51;37.76;98208.41;5110624;28;20157;-57
2021/12/26 00:20:25;;;;;;;8.57;5.65;;;;;;;19.50;37.85;98208.78;5110507;28;20044;-57
2021/12/26 00:22:50;;;;;;;7.50;5.18;;;;;;;19.50;37.69;98206.84;5110473;28;20052;-57
2021/12/26 00:25:16;;;;;;;7.32;5.13;;;;;;;19.47;37.79;98204.84;5110405;28;20079;-57
2021/12/26 00:27:42;;;;;;;8.13;5.53;;;;;;;19.47;37.88;98206.81;5110480;28;20414;-57
2021/12/26 00:30:17;;;;;;;7.65;5.22;;;;;;;19.47;37.79;98204.03;5110441;28;20048;-57
2021/12/26 00:32:44;;;;;;;6.53;5.13;;;;;;;19.47;37.92;98206.81;5110365;28;20560;-57
2021/12/26 00:35:12;;;;;;;7.40;5.40;;;;;;;19.46;38.01;98205.22;5110371;28;20122;-57
2021/12/26 00:37:38;;;;;;;7.10;5.43;;;;;;;19.47;37.96;98199.28;5110352;28;20078;-57
2021/12/26 00:40:05;;;;;;;6.25;4.85;;;;;;;19.43;38.06;98192.97;5110402;28;20507;-57
2021/12/26 00:42:30;;;;;;;7.40;5.20;;;;;;;19.44;38.00;98202.88;5109948;28;20054;-66
2021/12/26 00:44:56;;;;;;;7.00;4.65;;;;;;;19.46;38.02;98199.69;5110122;28;20048;-66
2021/12/26 00:47:21;;;;;;;7.03;4.80;;;;;;;19.45;38.09;98198.09;5110153;28;20541;-57
2021/12/26 00:49:46;;;;;;;6.53;4.60;;;;;;;19.45;38.11;98209.19;5109975;28;20407;-57
2021/12/26 00:52:12;;;;;;;6.00;4.30;;;;;;;19.43;38.13;98206.81;5110030;28;20042;-57
2021/12/26 00:54:37;;;;;;;6.72;4.38;;;;;;;19.45;38.26;98204.44;5110007;28;20415;-57
2021/12/26 00:57:04;;;;;;;8.20;4.72;;;;;;;19.45;38.29;98203.66;5109984;28;20090;-65
2021/12/26 00:59:29;;;;;;;6.80;4.30;;;;;;;19.47;38.18;98206.81;5109721;28;20043;-66
2021/12/26 01:01:56;;;;;;;5.78;4.20;;;;;;;19.46;38.24;98197.69;5109766;28;20098;-58
2021/12/26 01:04:22;;;;;;;6.32;4.45;;;;;;;19.46;38.42;98202.47;5109674;28;20468;-57
2021/12/26 01:06:48;;;;;;;7.05;4.72;;;;;;;19.46;38.25;98213.56;5109617;28;20044;-57
2021/12/26 01:09:19;;;;;;;6.45;4.43;;;;;;;19.46;38.22;98222.66;5109913;28;20453;-57
2021/12/26 01:11:50;;;;;;;5.78;3.75;;;;;;;19.46;38.28;98224.66;5109650;28;20085;-57
2021/12/26 01:14:18;;;;;;;6.15;4.38;;;;;;;19.45;38.27;98221.09;5109443;28;20050;-57
2021/12/26 01:16:47;;;;;;;6.93;4.50;;;;;;;19.44;38.28;98219.50;5106216;28;20077;-57
2021/12/26 01:19:15;;;;;;;5.68;4.00;;;;;;;19.45;38.29;98220.28;5109745;28;20126;-57
2021/12/26 01:21:43;;;;;;;6.55;4.32;;;;;;;19.45;38.33;98220.28;5109665;28;20079;-57
2021/12/26 01:24:13;;;;;;;6.05;4.22;;;;;;;19.44;38.27;98225.03;5113111;28;20044;-57
2021/12/26 01:26:39;;;;;;;5.93;4.00;;;;;;;19.46;38.25;98219.09;5113155;28;20051;-57
2021/12/26 01:29:05;;;;;;;6.05;4.10;;;;;;;19.47;38.31;98223.44;5113231;28;20059;-57
2021/12/26 01:31:30;;;;;;;5.80;3.78;;;;;;;19.48;38.26;98223.06;5113152;28;20116;-57
2021/12/26 01:34:00;;;;;;;5.72;3.85;;;;;;;19.47;38.27;98237.31;5113013;28;20423;-57
2021/12/26 01:36:28;;;;;;;6.70;4.28;;;;;;;19.47;38.17;98238.09;5112858;28;20042;-66
2021/12/26 01:38:56;;;;;;;5.57;3.83;;;;;;;19.48;38.34;98241.66;5112781;28;20415;-66
2021/12/26 01:41:21;;;;;;;5.68;3.95;;;;;;;19.47;38.32;98240.88;5112586;28;20048;-57
2021/12/26 01:43:48;;;;;;;6.07;3.95;;;;;;;19.48;38.23;98241.66;5112772;28;20042;-57
2021/12/26 01:46:15;;;;;;;5.90;4.38;;;;;;;19.48;38.31;98241.66;5112787;28;20036;-57
2021/12/26 01:48:40;;;;;;;6.57;4.13;;;;;;;19.48;38.30;98239.69;5112760;28;20054;-57
2021/12/26 01:51:06;;;;;;;5.20;3.83;;;;;;;19.45;38.20;98228.59;5112710;28;20142;-57
2021/12/26 01:53:39;;;;;;;5.47;4.07;;;;;;;19.45;38.29;98242.47;5112717;28;20086;-66
2021/12/26 01:56:06;;;;;;;;;;;;;;;19.50;38.29;98242.06;5113178;28;20046;-66
2021/12/26 01:58:31;;;;;;;5.57;4.03;;;;;;;19.47;38.30;98248.41;5112636;28;20384;-57
2021/12/26 02:01:10;;;;;;;5.05;3.90;;;;;;;19.46;38.32;98246.84;5112556;28;20039;-57
2021/12/26 02:03:37;;;;;;;5.60;3.80;;;;;;;19.46;38.34;98244.06;5112059;28;20134;-57
2021/12/26 02:06:05;;;;;;;5.47;3.63;;;;;;;19.46;38.37;98241.28;5112029;28;20046;-57
2021/12/26 02:08:30;;;;;;;5.88;4.38;;;;;;;19.45;38.33;98240.50;5112532;28;20130;-57
2021/12/26 02:10:59;;;;;;;5.68;3.85;;;;;;;19.44;38.41;98241.69;5112497;28;20151;-57
2021/12/26 02:13:26;;;;;;;6.00;4.13;;;;;;;19.44;38.36;98243.66;5094002;28;20043;-57
2021/12/26 02:15:51;;;;;;;5.57;3.63;;;;;;;19.42;38.45;98235.72;5112581;28;20075;-57
2021/12/26 02:18:17;;;;;;;5.32;3.70;;;;;;;19.47;38.43;98245.63;5112191;28;20074;-57
2021/12/26 02:23:18;;;;;;;5.30;3.80;;;;;;;19.46;38.37;98247.63;5112144;28;20036;-67
2021/12/26 02:28:15;;;;;;;4.95;3.20;;;;;;;19.44;38.54;98247.22;5112085;28;20519;-66
2021/12/26 02:30:40;;;;;;;4.07;3.05;;;;;;;19.43;38.55;98248.41;5112135;28;20050;-66
2021/12/26 02:33:10;;;;;;;4.63;3.08;;;;;;;19.45;38.47;98240.50;5111957;28;20040;-66
2021/12/26 02:35:37;;;;;;;4.53;2.92;;;;;;;19.48;38.53;98244.44;5111654;28;20094;-66
2021/12/26 02:38:04;;;;;;;4.40;3.13;;;;;;;19.47;38.51;98249.19;5112103;28;20058;-66
2021/12/26 02:40:29;;;;;;;3.78;2.63;;;;;;;19.45;38.49;98248.03;5111797;28;20074;-66
2021/12/26 02:42:54;;;;;;;4.40;2.30;;;;;;;19.46;38.55;98252.38;5111896;28;20075;-66
2021/12/26 02:45:20;;;;;;;5.03;2.88;;;;;;;19.48;38.54;98250.78;5111837;28;20042;-66
2021/12/26 02:47:49;;;;;;;3.30;2.45;;;;;;;19.47;38.64;98256.72;5111884;28;20066;-66
2021/12/26 02:50:23;;;;;;;4.13;2.60;;;;;;;19.43;38.69;98247.59;5111833;28;20127;-66
2021/12/26 02:52:50;;;;;;;4.50;2.92;;;;;;;19.41;38.53;98249.97;5111869;28;20538;-66
2021/12/26 02:55:17;;;;;;;3.47;2.63;;;;;;;19.46;38.55;98260.69;5111735;28;20461;-66
2021/12/26 02:57:52;;;;;;;4.13;2.55;;;;;;;19.45;38.63;98262.69;5111802;28;20051;-66
2021/12/26 03:00:21;;;;;;;4.25;2.83;;;;;;;19.45;38.61;98271.00;5111674;28;20118;-66
2021/12/26 03:02:50;;;;;;;4.57;2.60;;;;;;;19.45;38.64;98262.69;5111391;28;20579;-66
2021/12/26 03:05:17;;;;;;;3.97;2.78;;;;;;;19.43;38.63;98261.47;5111749;28;20189;-66
2021/12/26 03:07:44;;;;;;;4.00;2.67;;;;;;;19.46;38.53;98260.69;5111582;28;20043;-66
2021/12/26 03:10:20;;;;;;;4.65;3.10;;;;;;;19.47;38.63;98263.06;5111284;28;20036;-66
2021/12/26 03:12:46;;;;;;;5.32;3.28;;;;;;;19.45;38.51;98259.13;5111567;28;20044;-65
2021/12/26 03:15:12;;;;;;;4.95;3.17;;;;;;;19.45;38.56;98254.34;5111407;28;20054;-66
2021/12/26 03:17:39;;;;;;;5.15;3.40;;;;;;;19.46;38.47;98257.91;5111206;28;20588;-66
2021/12/26 03:20:11;;;;;;;4.80;3.33;;;;;;;19.44;38.51;98257.53;5111125;28;20546;-66
2021/12/26 03:22:36;;;;;;;5.63;3.45;;;;;;;19.45;38.60;98253.56;5111093;28;20138;-66
2021/12/26 03:25:09;;;;;;;4.93;3.33;;;;;;;19.45;38.49;98248.03;5111254;28;20139;-66
2021/12/26 03:27:34;;;;;;;5.13;3.25;;;;;;;19.45;38.50;98250.78;5111562;28;20048;-57
2021/12/26 03:30:00;;;;;;;4.25;3.00;;;;;;;19.43;38.55;98248.41;5111379;28;20092;-57
2021/12/26 03:32:25;;;;;;;5.63;3.40;;;;;;;19.44;38.52;98247.22;5111154;28;20058;-66
2021/12/26 03:34:50;;;;;;;5.18;3.72;;;;;;;19.45;38.53;98250.78;5111100;28;20051;-57
2021/12/26 03:37:17;;;;;;;4.38;3.10;;;;;;;19.43;38.50;98256.75;5111195;28;20050;-57
2021/12/26 03:39:43;;;;;;;4.97;3.53;;;;;;;19.43;38.53;98250.38;5110789;28;20047;-66
2021/12/26 03:42:09;;;;;;;5.38;3.70;;;;;;;19.44;38.52;98246.44;5110625;28;20043;-66
2021/12/26 03:44:35;;;;;;;5.10;3.35;;;;;;;19.42;38.61;98243.25;5111086;28;20048;-66
2021/12/26 03:47:01;;;;;;;5.72;3.75;;;;;;;19.42;38.64;98246.00;5110986;28;20088;-67
2021/12/26 03:49:27;;;;;;;5.03;3.13;;;;;;;19.41;38.57;98248.00;5110765;28;20048;-66
2021/12/26 03:51:52;;;;;;;3.92;2.95;;;;;;;19.41;38.56;98247.22;5110975;28;20126;-66
2021/12/26 03:54:18;;;;;;;4.28;3.30;;;;;;;19.42;38.54;98243.25;5110921;28;20189;-66
2021/12/26 03:56:43;;;;;;;4.28;2.67;;;;;;;19.41;38.70;98239.69;5110881;28;20043;-67
2021/12/26 03:59:09;;;;;;;4.78;3.05;;;;;;;19.41;38.55;98245.22;5110782;28;20043;-67
2021/12/26 04:01:34;;;;;;;4.00;2.80;;;;;;;19.41;38.66;98239.69;5110607;28;20040;-66
2021/12/26 04:04:00;;;;;;;4.40;3.10;;;;;;;19.41;38.57;98253.53;5110449;28;20054;-66
2021/12/26 04:06:26;;;;;;;4.05;2.78;;;;;;;19.42;38.53;98248.78;5110783;28;20044;-66
2021/12/26 04:08:51;;;;;;;3.83;2.67;;;;;;;19.43;38.53;98244.81;5110774;28;20042;-66
2021/12/26 04:11:17;;;;;;;3.97;2.70;;;;;;;19.40;38.51;98237.31;5110422;28;20036;-66
2021/12/26 04:13:43;;;;;;;4.35;2.88;;;;;;;19.42;38.58;98249.56;5110334;28;20047;-66
2021/12/26 04:16:08;;;;;;;3.88;2.35;;;;;;;19.44;38.50;98251.97;5110361;28;20035;-66
2021/12/26 04:18:34;;;;;;;4.35;2.83;;;;;;;19.42;38.55;98248.78;5110553;28;20046;-66
2021/12/26 04:20:59;;;;;;;3.75;2.47;;;;;;;19.41;38.64;98250.78;5110549;28;20043;-66
2021/12/26 04:23:25;;;;;;;3.67;2.60;;;;;;;19.55;38.40;98249.22;5110324;28;20384;-66
2021/12/26 04:25:50;;;;;;;4.03;2.85;;;;;;;20.37;37.08;98252.78;5110146;28;20044;-66
2021/12/26 04:28:19;;;;;;;3.70;2.63;;;;;;;20.31;36.92;98252.41;5109962;28;20089;-66
2021/12/26 04:30:46;;;;;;;4.15;2.85;;;;;;;20.15;37.24;98251.25;5110008;28;20459;-66
2021/12/26 04:33:12;;;;;;;4.05;2.80;;;;;;;20.02;37.42;98253.63;5110108;28;20047;-66
2021/12/26 04:35:38;;;;;;;3.70;2.60;;;;;;;19.88;37.58;98248.88;5110195;28;20412;-66
2021/12/26 04:38:04;;;;;;;3.95;2.63;;;;;;;20.81;36.40;98243.16;5110054;28;20232;-66
2021/12/26 04:40:30;;;;;;;3.85;2.72;;;;;;;20.96;36.00;98243.91;5110149;28;20521;-66
2021/12/26 04:42:55;;;;;;;4.07;2.53;;;;;;;20.69;36.34;98247.16;5110141;28;20047;-66
2021/12/26 04:45:21;;;;;;;3.78;2.60;;;;;;;20.46;36.76;98264.31;5109940;28;20062;-65
2021/12/26 04:47:49;;;;;;;3.28;2.35;;;;;;;20.29;37.04;98270.66;5109870;28;20412;-66
2021/12/26 04:50:19;;;;;;;3.67;2.58;;;;;;;20.15;37.27;98268.69;5109849;28;20484;-66
2021/12/26 04:52:45;;;;;;;3.55;2.58;;;;;;;20.03;37.33;98263.53;5110151;28;20075;-57
2021/12/26 04:55:12;;;;;;;3.30;2.30;;;;;;;19.95;37.71;98270.28;5110082;28;20514;-57
2021/12/26 04:57:37;;;;;;;4.25;2.80;;;;;;;19.87;37.65;98274.25;5113907;28;20035;-57
2021/12/26 05:00:06;;;;;;;3.22;2.35;;;;;;;19.81;37.91;98270.28;5116843;28;20044;-66
2021/12/26 05:02:35;;;;;;;3.90;2.70;;;;;;;19.76;37.88;98272.25;5116694;28;20051;-65
2021/12/26 05:05:00;;;;;;;3.80;2.75;;;;;;;19.72;38.01;98265.91;5116788;28;20519;-66
2021/12/26 05:07:26;;;;;;;3.72;2.72;;;;;;;19.68;38.10;98273.44;5116646;28;20564;-66
2021/12/26 05:09:51;;;;;;;4.63;3.17;;;;;;;19.65;38.23;98279.78;5116287;28;20044;-57
2021/12/26 05:12:16;;;;;;;3.35;2.47;;;;;;;19.61;38.27;98273.41;5116449;28;20063;-57
2021/12/26 05:14:42;;;;;;;4.03;2.70;;;;;;;19.60;38.24;98280.16;5116518;28;20551;-57
2021/12/26 05:17:07;;;;;;;3.35;2.53;;;;;;;19.57;38.26;98272.63;5116554;28;20047;-57
2021/12/26 05:19:33;;;;;;;3.72;2.60;;;;;;;19.56;38.35;98272.97;5098140;28;20430;-57
2021/12/26 05:21:58;;;;;;;3.88;2.70;;;;;;;19.53;38.42;98277.34;5116399;28;20089;-57
2021/12/26 05:24:23;;;;;;;4.07;2.70;;;;;;;19.51;38.37;98272.19;5116592;28;20048;-57
2021/12/26 05:26:49;;;;;;;3.83;2.70;;;;;;;19.49;38.41;98276.53;5116357;28;20092;-57
2021/12/26 05:29:14;;;;;;;3.88;2.80;;;;;;;19.49;38.48;98282.88;5116325;28;20047;-57
2021/12/26 05:31:40;;;;;;;4.68;2.45;;;;;;;19.47;38.51;98287.22;5116241;28;20052;-57
2021/12/26 05:34:05;;;;;;;3.90;2.83;;;;;;;19.48;38.50;98288.81;5127953;27;20074;-68
2021/12/26 05:36:31;;;;;;;3.58;2.53;;;;;;;19.43;38.44;98284.47;5137709;27;20134;-67
2021/12/26 05:38:57;;;;;;;4.65;2.83;;;;;;;19.44;38.41;98288.03;5136740;27;20054;-66
2021/12/26 05:41:22;;;;;;;3.42;2.60;;;;;;;19.44;38.52;98291.59;5136708;27;20503;-66
2021/12/26 05:43:47;;;;;;;3.42;2.47;;;;;;;19.43;38.42;98298.34;5136765;27;20050;-66
2021/12/26 05:46:13;;;;;;;3.95;2.60;;;;;;;19.42;38.56;98293.16;5136735;27;20043;-66
2021/12/26 05:48:38;;;;;;;3.97;2.80;;;;;;;19.41;38.59;98286.03;5136553;27;20054;-66
2021/12/26 05:51:04;;;;;;;3.85;2.75;;;;;;;19.40;38.40;98282.47;5136776;27;20047;-66
2021/12/26 05:53:29;;;;;;;4.15;2.90;;;;;;;19.40;38.47;98285.22;5136513;27;20043;-66
2021/12/26 05:55:55;;;;;;;4.03;2.53;;;;;;;19.39;38.48;98282.88;5136611;27;20079;-66
2021/12/26 05:58:21;;;;;;;3.72;2.67;;;;;;;19.40;38.45;98278.91;5136663;27;20088;-66
2021/12/26 06:00:46;;;;;;;3.55;2.72;;;;;;;19.40;38.48;98276.13;5136483;27;20112;-66
2021/12/26 06:03:11;;;;;;;3.97;2.65;;;;;;;19.42;38.49;98287.59;5136314;27;20035;-66
2021/12/26 06:05:37;;;;;;;3.70;2.65;;;;;;;19.40;38.49;98287.22;5136452;27;20134;-66
2021/12/26 06:08:03;;;;;;;3.58;2.55;;;;;;;19.41;38.38;98289.59;5135308;27;20122;-66
2021/12/26 06:10:28;;;;;;;3.30;2.20;;;;;;;19.40;38.51;98288.00;5132120;27;20058;-67
2021/12/26 06:12:53;;;;;;;3.90;2.40;;;;;;;19.41;38.46;98291.56;5133005;28;20057;-66
2021/12/26 06:15:19;;;;;;;3.80;2.40;;;;;;;19.38;38.43;98287.63;5132784;28;20035;-66
2021/12/26 06:17:44;;;;;;;3.53;2.33;;;;;;;19.38;38.45;98276.53;5132976;27;20380;-65
2021/12/26 06:20:14;;;;;;;3.60;2.28;;;;;;;19.41;38.72;98286.03;5133260;27;20044;-66
2021/12/26 06:22:41;;;;;;;3.45;2.05;;;;;;;19.36;38.53;98287.22;5133098;27;20047;-66
2021/12/26 06:25:08;;;;;;;3.08;1.98;;;;;;;19.41;38.54;98295.13;5133039;27;20051;-66
2021/12/26 06:27:34;;;;;;;3.63;2.38;;;;;;;19.42;38.38;98291.19;5132693;27;20051;-66
2021/12/26 06:30:00;;;;;;;3.88;2.30;;;;;;;19.40;38.48;98290.00;5132779;27;20054;-66
2021/12/26 06:32:25;;;;;;;4.03;2.15;;;;;;;19.41;38.48;98291.56;5132825;27;20130;-66
2021/12/26 06:34:50;;;;;;;3.15;2.20;;;;;;;19.41;38.44;98297.13;5132681;27;20146;-66
2021/12/26 06:37:16;;;;;;;3.45;2.38;;;;;;;19.39;38.41;98291.97;5132513;27;20134;-66
2021/12/26 06:39:41;;;;;;;3.10;2.20;;;;;;;19.40;38.40;98301.88;5132673;27;20050;-66
2021/12/26 06:42:07;;;;;;;2.92;1.83;;;;;;;19.39;38.50;98293.97;5132587;28;20387;-66
2021/12/26 06:44:32;;;;;;;2.97;2.03;;;;;;;19.41;38.59;98297.13;5132710;27;20133;-66
2021/12/26 06:46:58;;;;;;;3.03;2.22;;;;;;;19.40;38.53;98281.66;5132524;28;20402;-66
2021/12/26 06:49:23;;;;;;;2.83;1.80;;;;;;;19.40;38.54;98292.75;5132455;27;20458;-66
2021/12/26 06:51:49;;;;;;;2.47;1.80;;;;;;;19.40;38.54;98290.00;5132507;27;20104;-65
2021/12/26 06:54:15;;;;;;;3.28;2.00;;;;;;;19.37;38.57;98296.34;5132548;27;20495;-66
2021/12/26 06:56:40;;;;;;;3.10;2.20;;;;;;;19.38;38.42;98300.69;5132449;27;20042;-66
2021/12/26 06:59:06;;;;;;;3.92;2.38;;;;;;;19.39;38.69;98302.28;5132223;27;20099;-66
2021/12/26 07:01:32;;;;;;;5.43;2.20;;;;;;;19.37;38.50;98302.66;5132244;28;20129;-66
2021/12/26 07:03:58;;;;;;;2.33;1.73;;;;;;;19.40;38.56;98312.97;5132451;27;20087;-66
2021/12/26 07:06:23;;;;;;;2.83;1.80;;;;;;;19.40;38.65;98301.88;5132265;28;20050;-66
2021/12/26 07:08:48;;;;;;;3.33;2.28;;;;;;;19.39;38.58;98299.50;5132041;27;20078;-66
2021/12/26 07:11:16;;;;;;;2.95;1.95;;;;;;;19.38;38.51;98297.91;5132039;27;20472;-57
2021/12/26 07:13:41;;;;;;;2.83;2.00;;;;;;;19.38;38.63;98307.03;5132071;27;20039;-57
2021/12/26 07:16:07;;;;;;;2.97;1.90;;;;;;;19.39;38.58;98308.59;5132071;27;20501;-57
2021/12/26 07:18:32;;;;;;;2.50;1.60;;;;;;;19.39;38.65;98313.38;5131879;27;20181;-57
2021/12/26 07:20:58;;;;;;;2.90;1.70;;;;;;;19.37;38.48;98308.22;5131550;27;20036;-57
2021/12/26 07:23:23;;;;;;;2.80;1.80;;;;;;;19.36;38.56;98319.69;5132086;27;20066;-57
2021/12/26 07:25:49;;;;;;;2.85;1.73;;;;;;;19.37;38.66;98329.59;5131933;28;20062;-57
2021/12/26 07:28:14;;;;;;;2.92;1.92;;;;;;;19.37;38.64;98324.06;5131928;27;20043;-57
2021/12/26 07:30:40;;;;;;;2.72;1.70;;;;;;;19.34;38.67;98317.28;5131645;27;20134;-57
2021/12/26 07:33:05;;;;;;;3.33;1.83;;;;;;;19.36;38.62;98322.44;5131676;27;20047;-57
2021/12/26 07:35:31;;;;;;;2.42;1.60;;;;;;;19.35;38.54;98323.63;5131816;28;20062;-57
2021/12/26 07:37:56;;;;;;;3.65;1.85;;;;;;;19.36;38.51;98325.22;5131717;27;20045;-57
2021/12/26 07:40:21;;;;;;;2.42;1.40;;;;;;;19.35;38.57;98326.41;5131346;27;20527;-65
2021/12/26 07:42:47;;;;;;;2.42;1.60;;;;;;;19.34;38.45;98319.28;5131155;28;20112;-57
2021/12/26 07:45:12;;;;;;;3.03;1.92;;;;;;;19.36;38.50;98328.00;5131361;27;20035;-57
2021/12/26 07:47:39;;;;;;;2.85;1.80;;;;;;;19.35;38.46;98326.41;5131305;27;20127;-66
2021/12/26 07:50:06;;;;;;;2.42;1.60;;;;;;;19.51;38.32;98319.34;5131359;27;20047;-66
2021/12/26 07:52:36;;;;;;;2.40;1.60;;;;;;;20.14;37.10;98317.06;5131427;27;20070;-66
2021/12/26 07:55:03;;;;;;;2.95;1.83;;;;;;;20.06;37.21;98321.03;5130195;28;20046;-65
2021/12/26 07:57:29;;;;;;;2.95;1.70;;;;;;;19.95;37.47;98320.25;5131206;27;20051;-64
2021/12/26 07:59:54;;;;;;;2.25;1.50;;;;;;;19.97;37.45;98315.09;5131251;27;20139;-66
2021/12/26 08:02:21;;;;;;;2.33;1.50;;;;;;;21.50;34.97;98309.19;5130971;27;20468;-66
2021/12/26 08:04:47;;;;;;;2.78;1.67;;;;;;;21.32;34.91;98314.84;5130993;27;20562;-66
2021/12/26 08:07:13;;;;;;;2.38;1.55;;;;;;;20.95;35.66;98306.25;5131201;27;20039;-66
2021/12/26 08:09:38;;;;;;;2.55;1.60;;;;;;;20.68;36.15;98308.72;5130995;27;20066;-66
2021/12/26 08:12:04;;;;;;;2.55;1.70;;;;;;;20.42;36.49;98312.69;5130795;28;20047;-66
2021/12/26 08:14:30;;;;;;;2.80;1.65;;;;;;;20.27;36.99;98312.69;5130863;27;20101;-66
2021/12/26 08:16:55;;;;;;;2.20;1.58;;;;;;;20.10;37.20;98310.72;5130942;27;20051;-66
2021/12/26 08:19:20;;;;;;;2.17;1.45;;;;;;;19.99;37.41;98318.25;5131150;27;20067;-66
2021/12/26 08:21:51;;;;;;;3.65;1.80;;;;;;;19.90;37.49;98309.53;5130819;27;20403;-66
2021/12/26 08:24:16;;;;;;;2.53;1.75;;;;;;;19.83;37.82;98312.28;5130827;27;20907;-66
2021/12/26 08:26:42;;;;;;;2.35;1.58;;;;;;;19.74;37.78;98305.16;5130902;27;20039;-66
2021/12/26 08:29:07;;;;;;;2.63;1.60;;;;;;;19.66;37.94;98292.47;5130817;27;20031;-66
2021/12/26 08:31:33;;;;;;;2.60;1.63;;;;;;;19.65;38.07;98306.72;5129895;27;20432;-66
2021/12/26 08:33:58;;;;;;;3.10;2.00;;;;;;;19.63;38.19;98298.78;5130785;28;20381;-66
2021/12/26 08:36:24;;;;;;;3.25;2.15;;;;;;;19.61;38.17;98300.38;5130827;27;20043;-66
2021/12/26 08:38:49;;;;;;;3.00;1.73;;;;;;;19.58;38.21;98307.50;5130635;27;20036;-66
2021/12/26 08:41:15;;;;;;;3.17;1.92;;;;;;;19.55;38.26;98299.94;5130356;28;20057;-66
2021/12/26 08:43:43;;;;;;;2.80;1.90;;;;;;;19.52;38.35;98304.28;5130693;27;20061;-66
2021/12/26 08:46:11;;;;;;;3.10;1.83;;;;;;;19.51;38.33;98310.22;5130620;27;20032;-66
2021/12/26 08:48:38;;;;;;;2.70;1.98;;;;;;;19.51;38.45;98313.00;5130406;27;20062;-66
2021/12/26 08:51:03;;;;;;;4.40;2.25;;;;;;;19.47;38.59;98317.75;5130302;27;20047;-66
2021/12/26 08:53:29;;;;;;;2.90;1.83;;;;;;;19.48;38.50;98314.56;5129713;27;20104;-66
2021/12/26 08:55:57;;;;;;;3.22;1.90;;;;;;;19.47;38.48;98312.19;5130254;28;20055;-66
2021/12/26 08:58:23;;;;;;;3.42;1.88;;;;;;;19.46;38.64;98308.63;5130561;27;20043;-66
2021/12/26 09:00:49;;;;;;;3.28;2.10;;;;;;;19.48;38.59;98317.34;5130610;27;20724;-66
2021/12/26 09:03:14;;;;;;;3.35;2.10;;;;;;;19.46;38.73;98313.38;5130413;27;20043;-66
2021/12/26 09:05:40;;;;;;;2.90;1.85;;;;;;;19.43;38.60;98316.91;5130388;27;20039;-66
2021/12/26 09:08:07;;;;;;;4.28;2.40;;;;;;;19.44;38.79;98316.56;5130276;28;20051;-66
2021/12/26 09:10:33;;;;;;;2.88;2.00;;;;;;;19.47;38.73;98323.28;5130100;27;20048;-57
2021/12/26 09:12:59;;;;;;;3.10;1.83;;;;;;;19.44;38.71;98326.84;5130221;27;20050;-57
2021/12/26 09:15:24;;;;;;;3.05;2.15;;;;;;;19.47;38.78;98321.31;5130016;27;20043;-57
2021/12/26 09:17:50;;;;;;;3.45;2.25;;;;;;;19.46;38.85;98327.25;5130364;27;20723;-57
2021/12/26 09:20:16;;;;;;;3.05;2.20;;;;;;;19.47;38.82;98328.84;5130431;27;20054;-57
2021/12/26 09:22:42;;;;;;;3.30;1.95;;;;;;;19.47;38.90;98328.84;5130243;27;20047;-57
2021/12/26 09:25:10;;;;;;;2.90;1.80;;;;;;;19.45;38.95;98329.22;5130225;27;20503;-66
2021/12/26 09:27:36;;;;;;;2.80;1.85;;;;;;;19.48;38.96;98333.19;5130114;27;20043;-66
2021/12/26 09:30:06;;;;;;;3.53;2.20;;;;;;;19.47;38.95;98335.16;5130175;27;20051;-66
2021/12/26 09:32:31;;;;;;;3.35;2.15;;;;;;;19.51;38.82;98338.75;5129920;27;20419;-66
2021/12/26 09:34:57;;;;;;;3.25;2.20;;;;;;;19.50;38.98;98339.13;5129920;28;20039;-66
2021/12/26 09:37:22;;;;;;;3.17;2.17;;;;;;;19.49;39.01;98343.88;5129913;27;20053;-66
2021/12/26 09:39:48;;;;;;;3.20;2.20;;;;;;;19.51;38.88;98346.28;5129936;28;20039;-66
2021/12/26 09:42:13;;;;;;;3.35;2.10;;;;;;;19.55;38.93;98346.28;5129745;27;20100;-66
2021/12/26 09:44:39;;;;;;;3.15;2.25;;;;;;;19.53;38.98;98349.47;5133095;27;20039;-57
2021/12/26 09:47:05;;;;;;;3.15;2.20;;;;;;;19.54;39.10;98345.50;5133453;28;20539;-57
2021/12/26 09:49:31;;;;;;;3.33;2.15;;;;;;;19.54;39.04;98353.81;5133488;27;20486;-57
2021/12/26 09:51:57;;;;;;;3.67;2.17;;;;;;;19.51;39.11;98352.63;5133362;27;20079;-57
2021/12/26 09:54:22;;;;;;;3.17;2.17;;;;;;;19.53;39.10;98349.47;5133485;27;20131;-57
2021/12/26 09:56:48;;;;;;;4.55;2.50;;;;;;;19.52;39.02;98342.31;5133545;27;20035;-57
2021/12/26 09:59:18;;;;;;;3.83;2.33;;;;;;;19.52;39.10;98351.44;5133362;27;20415;-57
2021/12/26 10:01:56;;;;;;;3.47;2.10;;;;;;;19.50;39.12;98353.81;5133108;27;20138;-57
2021/12/26 10:04:27;;;;;;;2.67;2.00;;;;;;;19.49;39.19;98341.09;5133436;27;20046;-57
2021/12/26 10:07:09;;;;;;;3.08;2.13;;;;;;;19.52;39.19;98345.88;5133436;27;20402;-57
2021/12/26 10:09:41;;;;;;;3.30;2.33;;;;;;;19.52;39.18;98353.41;5133441;28;20058;-66
2021/12/26 10:12:07;;;;;;;3.13;2.00;;;;;;;19.53;39.24;98361.34;5129567;28;20051;-66
2021/12/26 10:14:35;;;;;;;2.85;1.98;;;;;;;19.53;39.34;98353.03;5133117;27;20093;-66
2021/12/26 10:17:04;;;;;;;3.30;2.10;;;;;;;19.52;39.32;98342.31;5133007;27;20066;-66
2021/12/26 10:19:48;;;;;;;3.13;2.05;;;;;;;19.51;39.33;98337.97;5133135;27;20082;-57
2021/12/26 10:22:17;;;;;;;3.35;2.30;;;;;;;19.51;39.38;98346.28;5132968;27;20483;-57
2021/12/26 10:24:45;;;;;;;3.47;2.30;;;;;;;19.51;39.49;98343.50;5132854;27;20514;-57
2021/12/26 10:27:19;;;;;;;3.40;2.33;;;;;;;19.51;39.42;98329.66;5132772;27;20047;-57
2021/12/26 10:29:47;;;;;;;5.28;2.40;;;;;;;19.50;39.56;98331.63;5132970;27;20490;-57
2021/12/26 10:32:19;;;;;;;3.33;2.30;;;;;;;19.49;39.47;98332.78;5132714;27;20519;-57
2021/12/26 10:34:46;;;;;;;3.75;2.35;;;;;;;19.49;39.49;98330.03;5132620;27;20063;-57
2021/12/26 10:37:20;;;;;;;3.42;2.47;;;;;;;19.50;39.56;98337.19;5132774;27;20047;-66
2021/12/26 10:39:53;;;;;;;3.78;2.53;;;;;;;19.48;39.62;98335.97;5132567;27;20050;-66
2021/12/26 10:42:22;;;;;;;4.13;2.50;;;;;;;19.50;39.57;98339.13;5132360;27;20055;-66
2021/12/26 10:44:53;;;;;;;3.25;2.20;;;;;;;19.77;39.30;98326.53;5132312;27;20083;-66
2021/12/26 10:47:22;;;;;;;3.97;2.33;;;;;;;20.96;37.05;98332.84;5132560;27;20047;-66
2021/12/26 10:50:09;;;;;;;3.80;2.67;;;;;;;20.85;37.25;98327.31;5132224;27;20051;-66
2021/12/26 10:52:40;;;;;;;3.00;2.15;;;;;;;20.58;37.82;98319.44;5132436;27;20453;-66
2021/12/26 10:55:11;;;;;;;3.20;2.17;;;;;;;20.38;38.19;98323.00;5131481;27;20036;-66
2021/12/26 10:57:49;;;;;;;3.40;2.50;;;;;;;20.17;38.48;98318.25;5132376;27;20403;-66
2021/12/26 11:00:25;;;;;;;3.20;2.08;;;;;;;20.04;38.75;98315.09;5132460;27;20047;-67
2021/12/26 11:03:01;;;;;;;3.05;2.28;;;;;;;19.93;39.01;98317.03;5132231;27;20087;-66
2021/12/26 11:05:34;;;;;;;3.22;2.10;;;;;;;19.82;39.25;98307.94;5132496;27;20031;-67
2021/12/26 11:08:05;;;;;;;3.17;2.03;;;;;;;19.78;39.27;98307.91;5133101;27;20104;-67
2021/12/26 11:10:32;;;;;;;3.55;2.17;;;;;;;19.73;39.48;98306.34;5132893;27;20046;-67
2021/12/26 11:13:00;;;;;;;3.30;2.17;;;;;;;19.70;39.60;98304.34;5129108;28;20118;-67
2021/12/26 11:15:32;;;;;;;3.28;2.30;;;;;;;19.66;39.56;98298.00;5132311;27;20054;-66
2021/12/26 11:18:07;;;;;;;3.50;2.13;;;;;;;19.63;39.68;98298.00;5132474;27;20403;-66
2021/12/26 11:20:42;;;;;;;3.42;2.30;;;;;;;19.62;39.79;98304.72;5129421;28;20039;-57
2021/12/26 11:23:13;;;;;;;3.00;2.10;;;;;;;19.60;39.74;98305.13;5131869;27;20055;-57
2021/12/26 11:25:49;;;;;;;3.08;2.17;;;;;;;19.57;39.81;98303.13;5132040;27;20047;-57
2021/12/26 11:28:26;;;;;;;2.75;1.70;;;;;;;19.53;40.01;98303.09;5132023;27;20055;-57
2021/12/26 11:30:53;;;;;;;3.20;2.22;;;;;;;19.53;40.09;98302.31;5131826;27;20498;-57
2021/12/26 11:33:20;;;;;;;3.33;2.10;;;;;;;19.51;40.01;98299.94;5131886;27;20491;-57
2021/12/26 11:35:48;;;;;;;2.80;2.00;;;;;;;19.49;40.14;98295.94;5131851;27;20039;-57
2021/12/26 11:38:19;;;;;;;3.67;2.00;;;;;;;19.51;40.13;98299.16;5131806;27;20051;-57